sim
Sign-in with your pilot id or email,
or register
Callsign
Passwort

Schedule Details

Flight Number: OEO7631
Departure: Paris Charles de Gaulle Airport (LFPG) at 06:40
Arrival: Munich Airport (EDDM) at 08:30

Weather Information
Getting current METAR information for LFPG 242000Z 22016KT 9999 -SHRA FEW020 SCT083 12/09 Q0999 NOSIG
Getting current METAR information for EDDM 242020Z 06005KT CAVOK 16/14 Q1003 NOSIG

Schedule Frequency

Route Map